Islip, NY

7:49 AM EDT on May 31, 2016 (GMT -0400)
East Islip | | Change Station

Elev 20 ft 40.72 °N, 73.18 °W | Updated 28 seconds ago

Overcast
Overcast
66.6 °F
Feels Like 66.6 °F
N
1.1
Wind Variable Wind from SSW

Today
High -- | Low -- °F
--% Chance of Precip.
Yesterday
High -- | Low -- °F
Precip. -- in
Pressure 29.96 in
Visibility 1.0 miles
Clouds Overcast 200 ft
Dew Point 66 °F
Humidity 97%
Rainfall in
Snow Depth Not available.
5:24 AM 8:17 PM
Waning Crescent, 28% visible
METAR KISP 311056Z 23003KT 1SM BR OVC002 19/19 A2995 RMK SFC VIS 3 SLP143 T01940189
Pressure 29.96 in
Visibility 1.0 miles
Clouds Overcast 200 ft
Dew Point 66 °F
Humidity 97%
Rainfall in
Snow Depth Not available.
5:24 AM 8:17 PM
Waning Crescent, 28% visible
METAR KISP 311056Z 23003KT 1SM BR OVC002 19/19 A2995 RMK SFC VIS 3 SLP143 T01940189

10-Day Weather Forecast

Almanac

Astronomy

May. 31, 2016 Rise Set
Actual Time
Civil Twilight
Nautical Twilight
Astronomical Twilight
Moon
Length of Visible Light
Length of Day
Tomorrow will be .
, % of the Moon is Illuminated

Today's Extremes

State Highs State Lows

Community

WunderPhotos

Upload Photos

1,914,840 photos uploaded!

WunderBlog® & News

Nearby

Air Quality

  Air Quality AQ Index Pollutant
Not available.

Snow Depth

Station Depth Elevation

Earthquake Activity

City Distance Mag. Time & Date
Minimum magnitude displayed is 2.5.

Coastal Water Temperatures

Place Temperature

Stations

Nearby Weather Stations

Station Location Temp. Windchill Dew Point Humidity Wind Precip. Elev Updated Type
                   

Watches & Warnings

There are currently no watches in effect.